createdAt,value
2022-11-09T00:01:03.514Z,8.40
2022-11-09T00:03:30.956Z,8.30
2022-11-09T00:06:00.039Z,8.40
2022-11-09T00:08:28.024Z,8.50
2022-11-09T00:10:55.674Z,8.50
2022-11-09T00:13:23.467Z,8.50
2022-11-09T00:15:51.323Z,8.60
2022-11-09T00:18:18.760Z,8.60
2022-11-09T00:20:48.321Z,8.60
2022-11-09T00:23:17.544Z,9.20
2022-11-09T00:25:45.665Z,8.60
2022-11-09T00:28:13.152Z,8.70
2022-11-09T00:30:41.495Z,8.60
2022-11-09T00:33:12.357Z,8.50
2022-11-09T00:35:44.058Z,8.50
2022-11-09T00:38:11.402Z,8.50
2022-11-09T00:40:39.262Z,8.40
2022-11-09T00:43:06.465Z,8.40
2022-11-09T00:45:34.214Z,8.40
2022-11-09T00:48:02.112Z,8.30
2022-11-09T00:50:30.397Z,8.30
2022-11-09T00:52:57.919Z,8.30
2022-11-09T00:55:26.709Z,8.30
2022-11-09T00:57:54.749Z,8.40
2022-11-09T01:00:24.631Z,8.40
2022-11-09T01:02:53.406Z,8.40
2022-11-09T01:05:21.131Z,8.50
2022-11-09T01:07:50.001Z,8.40
2022-11-09T01:10:17.649Z,8.40
2022-11-09T01:12:47.059Z,8.30
2022-11-09T01:15:15.949Z,8.40
2022-11-09T01:17:43.286Z,8.50
2022-11-09T01:20:11.637Z,8.50
2022-11-09T01:22:38.931Z,8.40
2022-11-09T01:25:07.402Z,8.40
2022-11-09T01:27:35.163Z,8.40
2022-11-09T01:30:06.731Z,8.40
2022-11-09T01:32:34.072Z,8.40
2022-11-09T01:35:01.718Z,8.50
2022-11-09T01:37:31.228Z,8.50
2022-11-09T01:39:58.801Z,8.50
2022-11-09T01:42:26.625Z,8.50
2022-11-09T01:45:23.711Z,8.50
2022-11-09T01:48:06.636Z,8.50
2022-11-09T01:50:48.323Z,8.40
2022-11-09T01:53:24.057Z,8.50
2022-11-09T01:55:54.577Z,8.40
2022-11-09T01:58:30.668Z,8.50
2022-11-09T02:01:00.881Z,8.40
2022-11-09T02:03:35.492Z,8.50
2022-11-09T02:06:08.970Z,8.50
2022-11-09T02:08:36.611Z,8.60
2022-11-09T02:11:16.484Z,8.60
2022-11-09T02:13:48.273Z,8.60
2022-11-09T02:16:16.454Z,8.60
2022-11-09T02:18:58.268Z,8.60
2022-11-09T02:21:28.026Z,8.50
2022-11-09T02:23:55.905Z,8.60
2022-11-09T02:26:38.863Z,8.50
2022-11-09T02:29:09.078Z,8.50
2022-11-09T02:31:42.452Z,8.50
2022-11-09T02:34:13.628Z,8.50
2022-11-09T02:36:43.739Z,8.40
2022-11-09T02:39:19.159Z,8.40
2022-11-09T02:42:04.466Z,8.30
2022-11-09T02:44:40.835Z,8.40
2022-11-09T02:47:08.959Z,8.50
2022-11-09T02:49:36.748Z,8.40
2022-11-09T02:52:04.420Z,8.30
2022-11-09T02:54:32.389Z,8.30
2022-11-09T02:57:00.551Z,8.30
2022-11-09T02:59:28.994Z,8.30
2022-11-09T03:01:56.493Z,8.40
2022-11-09T03:04:24.308Z,8.40
2022-11-09T03:06:52.754Z,8.50
2022-11-09T03:09:20.838Z,8.50
2022-11-09T03:11:48.231Z,8.50
2022-11-09T03:14:17.204Z,8.50
2022-11-09T03:16:50.890Z,8.60
2022-11-09T03:19:19.290Z,8.50
2022-11-09T03:21:49.181Z,8.60
2022-11-09T03:24:16.715Z,8.60
2022-11-09T03:26:44.088Z,8.60
2022-11-09T03:29:11.833Z,8.60
2022-11-09T03:31:39.916Z,8.50
2022-11-09T03:34:10.036Z,8.60
2022-11-09T03:36:37.406Z,8.50
2022-11-09T03:39:04.997Z,8.50
2022-11-09T03:41:33.385Z,8.50
2022-11-09T03:44:02.589Z,8.50
2022-11-09T03:46:29.913Z,8.40
2022-11-09T03:48:57.507Z,8.40
2022-11-09T03:51:24.787Z,8.30
2022-11-09T03:53:52.548Z,8.30
2022-11-09T03:56:19.879Z,8.30
2022-11-09T03:58:47.515Z,8.30
2022-11-09T04:01:15.336Z,8.30
2022-11-09T04:03:43.011Z,8.30
2022-11-09T04:06:10.286Z,8.30
2022-11-09T04:08:37.979Z,8.30
2022-11-09T04:11:05.591Z,8.30
2022-11-09T04:13:33.293Z,8.40
2022-11-09T04:16:00.629Z,8.40
2022-11-09T04:18:28.297Z,8.40
2022-11-09T04:20:58.909Z,8.30
2022-11-09T04:23:26.480Z,8.30
2022-11-09T04:25:53.983Z,8.30
2022-11-09T04:28:21.767Z,8.30
2022-11-09T04:30:49.062Z,8.20
2022-11-09T04:33:17.582Z,8.20
2022-11-09T04:35:45.162Z,8.20
2022-11-09T04:38:14.405Z,8.10
2022-11-09T04:40:42.125Z,8.10
2022-11-09T04:43:13.745Z,8.00
2022-11-09T04:45:42.130Z,8.10
2022-11-09T04:48:11.384Z,8.10
2022-11-09T04:50:38.862Z,8.00
2022-11-09T04:53:11.511Z,8.10
2022-11-09T04:55:39.739Z,8.10
2022-11-09T04:58:07.751Z,8.20
2022-11-09T05:00:35.762Z,8.10
2022-11-09T05:03:05.538Z,8.10
2022-11-09T05:05:37.955Z,8.10
2022-11-09T05:08:06.499Z,8.00
2022-11-09T05:10:34.358Z,8.00
2022-11-09T05:13:04.947Z,8.00
2022-11-09T05:15:33.021Z,8.00
2022-11-09T05:18:01.981Z,8.00
2022-11-09T05:20:29.955Z,7.90
2022-11-09T05:23:18.073Z,7.90
2022-11-09T05:25:46.224Z,7.90
2022-11-09T05:28:15.360Z,8.00
2022-11-09T05:30:43.438Z,7.90
2022-11-09T05:33:12.281Z,7.90
2022-11-09T05:35:39.803Z,7.90
2022-11-09T05:38:07.543Z,7.80
2022-11-09T05:40:34.996Z,7.80
2022-11-09T05:43:02.612Z,7.80
2022-11-09T05:45:42.504Z,7.90
2022-11-09T05:48:12.370Z,7.80
2022-11-09T05:50:39.980Z,7.80
2022-11-09T05:53:15.061Z,7.80
2022-11-09T05:55:42.614Z,7.70
2022-11-09T05:58:10.733Z,7.70
2022-11-09T06:00:38.323Z,7.70
2022-11-09T06:03:08.839Z,7.70
2022-11-09T06:05:38.273Z,7.70
2022-11-09T06:08:08.420Z,7.70
2022-11-09T06:10:36.219Z,7.80
2022-11-09T06:13:04.207Z,7.70
2022-11-09T06:15:31.922Z,7.80
2022-11-09T06:18:00.609Z,7.70
2022-11-09T06:20:28.812Z,8.60
2022-11-09T06:23:03.749Z,7.70
2022-11-09T06:25:33.408Z,7.70
2022-11-09T06:28:01.912Z,7.80
2022-11-09T06:30:29.798Z,7.80
2022-11-09T06:33:02.076Z,7.90
2022-11-09T06:35:30.143Z,7.80
2022-11-09T06:38:01.552Z,7.90
2022-11-09T06:40:29.552Z,8.00
2022-11-09T06:43:01.126Z,7.90
2022-11-09T06:45:30.234Z,8.00
2022-11-09T06:48:03.840Z,8.10
2022-11-09T06:50:33.328Z,8.00
2022-11-09T06:53:04.218Z,8.10
2022-11-09T06:55:33.225Z,8.20
2022-11-09T06:58:05.029Z,8.10
2022-11-09T07:00:32.437Z,8.20
2022-11-09T07:03:00.104Z,8.30
2022-11-09T07:05:27.419Z,8.30
2022-11-09T07:07:55.053Z,8.30
2022-11-09T07:10:22.322Z,8.40
2022-11-09T07:12:49.873Z,8.50
2022-11-09T07:15:18.653Z,8.60
2022-11-09T07:17:46.523Z,8.60
2022-11-09T07:20:15.039Z,8.60
2022-11-09T07:22:42.927Z,8.70
2022-11-09T07:25:12.866Z,8.70
2022-11-09T07:27:40.550Z,8.80
2022-11-09T07:30:08.358Z,8.90
2022-11-09T07:35:24.277Z,9.00
2022-11-09T07:37:51.895Z,9.00
2022-11-09T07:40:19.909Z,9.00
2022-11-09T07:42:47.514Z,9.10
2022-11-09T07:45:15.747Z,9.10
2022-11-09T07:47:43.590Z,9.10
2022-11-09T07:50:10.938Z,9.30
2022-11-09T07:52:38.492Z,9.40
2022-11-09T07:55:06.301Z,9.60
2022-11-09T07:57:34.105Z,9.70
2022-11-09T08:00:01.514Z,9.80
2022-11-09T08:02:39.086Z,9.80
2022-11-09T08:05:07.044Z,9.90
2022-11-09T08:07:34.682Z,9.90
2022-11-09T08:10:01.963Z,10.00
2022-11-09T08:12:32.962Z,9.90
2022-11-09T08:15:05.470Z,10.00
2022-11-09T08:17:33.310Z,10.00
2022-11-09T08:20:00.572Z,10.10
2022-11-09T08:22:28.244Z,10.10
2022-11-09T08:24:55.550Z,10.20
2022-11-09T08:27:23.554Z,10.30
2022-11-09T08:29:51.099Z,10.40
2022-11-09T08:32:18.761Z,10.40
2022-11-09T08:34:49.172Z,10.60
2022-11-09T08:37:17.147Z,10.60
2022-11-09T08:39:44.489Z,10.70
2022-11-09T08:42:12.106Z,10.70
2022-11-09T08:44:39.368Z,10.70
2022-11-09T08:47:06.985Z,10.70
2022-11-09T08:49:34.942Z,10.80
2022-11-09T08:52:02.567Z,10.80
2022-11-09T08:54:29.940Z,10.90
2022-11-09T08:56:57.853Z,11.00
2022-11-09T08:59:25.509Z,11.10
2022-11-09T09:01:53.131Z,11.20
2022-11-09T09:04:20.578Z,11.20
2022-11-09T09:06:48.164Z,11.30
2022-11-09T09:09:15.584Z,11.40
2022-11-09T09:11:43.081Z,11.50
2022-11-09T09:14:10.376Z,11.50
2022-11-09T09:16:38.176Z,11.60
2022-11-09T09:19:05.607Z,11.70
2022-11-09T09:21:33.155Z,11.70
2022-11-09T09:24:00.422Z,11.80
2022-11-09T09:26:28.041Z,11.70
2022-11-09T09:28:55.393Z,11.90
2022-11-09T09:31:23.306Z,11.90
2022-11-09T09:33:50.839Z,12.10
2022-11-09T09:36:21.282Z,12.20
2022-11-09T09:38:53.134Z,12.20
2022-11-09T09:41:27.514Z,12.20
2022-11-09T09:43:59.617Z,12.20
2022-11-09T09:46:47.732Z,12.30
2022-11-09T09:49:25.752Z,12.30
2022-11-09T09:52:17.797Z,12.40
2022-11-09T09:55:09.071Z,12.60
2022-11-09T09:57:41.659Z,12.70
2022-11-09T10:00:21.882Z,12.70
2022-11-09T10:02:51.009Z,13.00
2022-11-09T10:05:20.173Z,13.30
2022-11-09T10:08:05.858Z,13.50
2022-11-09T10:10:46.486Z,13.60
2022-11-09T10:13:17.186Z,13.60
2022-11-09T10:15:55.751Z,14.10
2022-11-09T10:19:01.462Z,14.20
2022-11-09T10:21:35.690Z,14.10
2022-11-09T10:24:11.860Z,14.10
2022-11-09T10:26:52.090Z,14.20
2022-11-09T10:29:25.771Z,13.90
2022-11-09T10:32:13.034Z,13.80
2022-11-09T10:34:56.769Z,13.80
2022-11-09T10:37:34.883Z,13.50
2022-11-09T10:40:06.162Z,13.30
2022-11-09T10:43:00.790Z,13.20
2022-11-09T10:46:05.345Z,13.20
2022-11-09T10:48:54.283Z,13.10
2022-11-09T10:51:47.784Z,13.00
2022-11-09T10:54:38.809Z,13.00
2022-11-09T10:57:27.340Z,12.90
2022-11-09T11:00:18.352Z,12.70
2022-11-09T11:03:27.117Z,12.70
2022-11-09T11:06:24.537Z,12.50
2022-11-09T11:09:13.691Z,12.50
2022-11-09T11:12:16.957Z,12.40
2022-11-09T11:15:15.874Z,12.40
2022-11-09T11:18:05.813Z,12.40
2022-11-09T11:21:18.624Z,12.40
2022-11-09T11:24:16.657Z,12.40
2022-11-09T11:27:21.686Z,12.50
2022-11-09T11:30:11.920Z,12.50
2022-11-09T11:32:59.014Z,12.60
2022-11-09T11:36:16.882Z,12.60
2022-11-09T11:39:35.278Z,12.60
2022-11-09T11:42:36.618Z,12.50
2022-11-09T11:45:40.635Z,12.60
2022-11-09T11:48:34.286Z,12.60
2022-11-09T11:51:54.651Z,12.60
2022-11-09T11:54:50.824Z,12.50
2022-11-09T11:57:56.845Z,12.50
2022-11-09T12:00:56.620Z,12.40
2022-11-09T12:03:52.022Z,12.50
2022-11-09T12:07:01.716Z,12.50
2022-11-09T12:10:00.378Z,12.50
2022-11-09T12:12:53.228Z,12.40
2022-11-09T12:15:47.307Z,12.50
2022-11-09T12:18:38.166Z,12.50
2022-11-09T12:21:46.955Z,12.40
2022-11-09T12:24:53.423Z,12.30
2022-11-09T12:28:17.060Z,12.30
2022-11-09T12:31:26.340Z,12.30
2022-11-09T12:34:48.394Z,12.30
2022-11-09T12:37:39.361Z,12.30
2022-11-09T12:40:27.475Z,12.20
2022-11-09T12:43:20.167Z,12.20
2022-11-09T12:46:07.713Z,12.20
2022-11-09T12:48:55.137Z,12.20
2022-11-09T12:51:41.652Z,12.20
2022-11-09T12:54:28.403Z,12.20
2022-11-09T12:57:26.195Z,12.20
2022-11-09T13:00:32.234Z,12.20
2022-11-09T13:03:52.916Z,12.30
2022-11-09T13:06:38.842Z,12.30
2022-11-09T13:09:32.536Z,12.30
2022-11-09T13:12:40.522Z,12.30
2022-11-09T13:15:28.805Z,12.20
2022-11-09T13:18:26.200Z,12.10
2022-11-09T13:21:21.572Z,12.10
2022-11-09T13:24:49.947Z,12.10
2022-11-09T13:27:54.699Z,12.00
2022-11-09T13:30:42.844Z,12.10
2022-11-09T13:33:30.263Z,12.00
2022-11-09T13:36:19.957Z,12.00
2022-11-09T13:39:33.085Z,11.80
2022-11-09T13:42:30.272Z,11.80
2022-11-09T13:45:46.720Z,11.80
2022-11-09T13:48:35.710Z,11.90
2022-11-09T13:51:23.027Z,11.80
2022-11-09T13:54:34.994Z,11.80
2022-11-09T13:57:24.014Z,11.70
2022-11-09T14:00:23.935Z,11.60
2022-11-09T14:03:24.544Z,11.70
2022-11-09T14:06:13.916Z,11.60
2022-11-09T14:09:01.440Z,11.70
2022-11-09T14:12:26.515Z,11.60
2022-11-09T14:15:44.964Z,11.50
2022-11-09T14:18:51.057Z,11.40
2022-11-09T14:21:47.465Z,11.50
2022-11-09T14:24:38.313Z,11.50
2022-11-09T14:27:24.480Z,11.40
2022-11-09T14:30:22.620Z,11.30
2022-11-09T14:33:24.780Z,11.20
2022-11-09T14:36:13.108Z,11.10
2022-11-09T14:39:05.370Z,11.00
2022-11-09T14:41:52.774Z,11.00
2022-11-09T14:44:44.438Z,10.90
2022-11-09T14:47:34.445Z,10.80
2022-11-09T14:50:37.149Z,10.80
2022-11-09T14:53:30.424Z,10.80
2022-11-09T14:56:19.885Z,10.70
2022-11-09T14:59:08.348Z,10.70
2022-11-09T15:02:15.518Z,10.70
2022-11-09T15:05:05.087Z,10.60
2022-11-09T15:07:51.104Z,10.60
2022-11-09T15:10:38.612Z,10.60
2022-11-09T15:13:36.569Z,10.60
2022-11-09T15:16:31.281Z,10.60
2022-11-09T15:19:21.481Z,10.60
2022-11-09T15:22:47.855Z,10.70
2022-11-09T15:25:52.518Z,10.70
2022-11-09T15:28:49.301Z,10.70
2022-11-09T15:31:37.574Z,10.70
2022-11-09T15:34:37.273Z,10.70
2022-11-09T15:37:40.534Z,10.90
2022-11-09T15:40:29.237Z,11.00
2022-11-09T15:43:17.309Z,11.10
2022-11-09T15:46:07.277Z,11.20
2022-11-09T15:49:00.492Z,11.30
2022-11-09T15:51:48.159Z,11.30
2022-11-09T15:54:38.729Z,11.40
2022-11-09T15:57:28.803Z,11.40
2022-11-09T16:00:20.733Z,11.50
2022-11-09T16:03:08.747Z,11.50
2022-11-09T16:05:54.744Z,11.60
2022-11-09T16:08:41.571Z,11.60
2022-11-09T16:11:27.899Z,11.60
2022-11-09T16:14:15.089Z,11.60
2022-11-09T16:17:01.124Z,11.60
2022-11-09T16:19:47.863Z,11.60
2022-11-09T16:22:34.218Z,11.60
2022-11-09T16:25:21.276Z,11.60
2022-11-09T16:28:08.780Z,11.70
2022-11-09T16:30:57.339Z,11.60
2022-11-09T16:33:46.272Z,11.60
2022-11-09T16:36:35.624Z,11.50
2022-11-09T16:39:26.235Z,11.50
2022-11-09T16:42:16.624Z,11.50
2022-11-09T16:45:14.156Z,11.30
2022-11-09T16:48:05.264Z,11.30
2022-11-09T16:50:55.696Z,11.30
2022-11-09T16:53:43.912Z,11.20
2022-11-09T16:56:30.484Z,11.10
2022-11-09T16:59:20.900Z,11.10
2022-11-09T17:02:07.274Z,11.00
2022-11-09T17:04:54.518Z,11.10
2022-11-09T17:07:42.790Z,11.20
2022-11-09T17:10:29.042Z,11.10
2022-11-09T17:13:15.328Z,11.00
2022-11-09T17:16:06.655Z,11.00
2022-11-09T17:18:54.720Z,11.00
2022-11-09T17:21:41.100Z,10.90
2022-11-09T17:24:28.480Z,10.90
2022-11-09T17:27:15.206Z,10.90
2022-11-09T17:30:01.344Z,10.90
2022-11-09T17:32:48.751Z,11.00
2022-11-09T17:35:36.935Z,11.00
2022-11-09T17:38:23.495Z,10.90
2022-11-09T17:41:11.803Z,10.90
2022-11-09T17:44:02.478Z,10.80
2022-11-09T17:46:49.476Z,10.80
2022-11-09T17:49:36.322Z,10.90
2022-11-09T17:52:22.659Z,10.90
2022-11-09T17:55:09.637Z,10.90
2022-11-09T17:57:56.880Z,10.90
2022-11-09T18:00:44.565Z,10.70
2022-11-09T18:03:36.515Z,10.80
2022-11-09T18:06:25.031Z,10.80
2022-11-09T18:09:39.678Z,10.80
2022-11-09T18:12:19.093Z,10.70
2022-11-09T18:15:06.485Z,10.70
2022-11-09T18:17:52.784Z,10.70
2022-11-09T18:20:41.552Z,10.70
2022-11-09T18:23:28.804Z,10.70
2022-11-09T18:26:15.733Z,10.60
2022-11-09T18:29:03.251Z,10.50
2022-11-09T18:31:49.978Z,10.50
2022-11-09T18:34:36.281Z,10.60
2022-11-09T18:37:23.239Z,10.50
2022-11-09T18:40:11.183Z,10.60
2022-11-09T18:42:57.075Z,10.50
2022-11-09T18:45:53.655Z,10.50
2022-11-09T18:48:41.628Z,10.50
2022-11-09T18:51:30.906Z,10.50
2022-11-09T18:54:18.778Z,10.40
2022-11-09T18:57:06.039Z,10.40
2022-11-09T18:59:52.540Z,10.40
2022-11-09T19:02:39.929Z,10.40
2022-11-09T19:05:27.250Z,10.40
2022-11-09T19:08:14.246Z,10.40
2022-11-09T19:11:05.684Z,10.40
2022-11-09T19:13:52.871Z,10.40
2022-11-09T19:16:40.592Z,10.30
2022-11-09T19:19:28.505Z,10.30
2022-11-09T19:22:17.885Z,10.30
2022-11-09T19:25:04.685Z,10.30
2022-11-09T19:27:51.111Z,10.30
2022-11-09T19:30:37.208Z,10.30
2022-11-09T19:33:23.522Z,10.30
2022-11-09T19:39:17.086Z,10.20
2022-11-09T19:42:04.417Z,10.20
2022-11-09T19:44:56.064Z,10.30
2022-11-09T19:47:43.121Z,10.30
2022-11-09T19:50:29.123Z,10.30
2022-11-09T19:53:15.713Z,10.30
2022-11-09T19:56:04.827Z,10.30
2022-11-09T19:58:58.159Z,10.30
2022-11-09T20:01:46.037Z,10.30
2022-11-09T20:04:33.590Z,10.20
2022-11-09T20:07:20.232Z,10.20
2022-11-09T20:10:08.945Z,10.30
2022-11-09T20:12:57.021Z,10.20
2022-11-09T20:15:43.408Z,10.20
2022-11-09T20:18:29.690Z,10.20
2022-11-09T20:21:16.218Z,10.20
2022-11-09T20:24:02.574Z,10.10
2022-11-09T20:26:49.567Z,10.10
2022-11-09T20:29:35.467Z,10.10
2022-11-09T20:32:23.775Z,10.00
2022-11-09T20:35:10.174Z,10.00
2022-11-09T20:37:57.453Z,10.00
2022-11-09T20:40:43.865Z,10.00
2022-11-09T20:43:30.438Z,9.90
2022-11-09T20:46:20.698Z,9.90
2022-11-09T20:49:07.337Z,9.90
2022-11-09T20:51:53.905Z,9.80
2022-11-09T20:54:40.357Z,9.80
2022-11-09T20:57:27.185Z,9.80
2022-11-09T21:00:14.781Z,9.70
2022-11-09T21:03:00.751Z,9.70
2022-11-09T21:05:51.051Z,9.70
2022-11-09T21:08:39.943Z,9.70
2022-11-09T21:11:28.886Z,9.60
2022-11-09T21:14:15.073Z,9.70
2022-11-09T21:17:02.100Z,9.70
2022-11-09T21:19:48.138Z,9.60
2022-11-09T21:23:06.316Z,9.60
2022-11-09T21:26:10.612Z,9.70
2022-11-09T21:29:15.856Z,9.60
2022-11-09T21:32:02.593Z,9.60
2022-11-09T21:34:50.509Z,9.60
2022-11-09T21:37:36.452Z,9.60
2022-11-09T21:40:24.999Z,9.60
2022-11-09T21:43:11.445Z,9.50
2022-11-09T21:45:58.658Z,9.40
2022-11-09T21:48:44.723Z,9.40
2022-11-09T21:51:34.389Z,9.40
2022-11-09T21:54:21.339Z,9.40
2022-11-09T21:57:08.497Z,9.40
2022-11-09T21:59:54.287Z,9.30
2022-11-09T22:02:40.745Z,9.40
2022-11-09T22:05:26.709Z,9.40
2022-11-09T22:08:13.124Z,9.30
2022-11-09T22:11:12.013Z,9.30
2022-11-09T22:14:16.806Z,9.30
2022-11-09T22:17:04.278Z,9.30
2022-11-09T22:20:09.536Z,9.30
2022-11-09T22:22:55.314Z,9.20
2022-11-09T22:25:46.766Z,9.20
2022-11-09T22:28:34.037Z,9.20
2022-11-09T22:31:20.425Z,9.00
2022-11-09T22:34:06.053Z,8.90
2022-11-09T22:36:52.355Z,8.90
2022-11-09T22:39:40.691Z,8.90
2022-11-09T22:42:30.497Z,8.90
2022-11-09T22:45:16.446Z,8.90
2022-11-09T22:48:02.862Z,8.90
2022-11-09T22:50:48.884Z,8.90
2022-11-09T22:53:35.129Z,9.00
2022-11-09T22:56:21.288Z,9.00
2022-11-09T22:59:08.037Z,9.00
2022-11-09T23:01:54.364Z,9.10
2022-11-09T23:04:40.487Z,9.10
2022-11-09T23:07:26.322Z,9.10
2022-11-09T23:10:12.212Z,9.10
2022-11-09T23:12:59.486Z,9.00
2022-11-09T23:15:57.930Z,9.10
2022-11-09T23:18:56.085Z,9.10
2022-11-09T23:21:42.646Z,9.00
2022-11-09T23:24:47.294Z,9.10
2022-11-09T23:27:33.638Z,9.00
2022-11-09T23:30:20.323Z,9.00
2022-11-09T23:33:06.603Z,9.00
2022-11-09T23:35:52.330Z,9.10
2022-11-09T23:38:39.586Z,9.10
2022-11-09T23:41:25.802Z,9.10
2022-11-09T23:44:12.009Z,9.10
2022-11-09T23:46:58.066Z,9.10
2022-11-09T23:49:44.554Z,9.10
2022-11-09T23:52:30.422Z,9.00
2022-11-09T23:55:16.903Z,9.20
2022-11-09T23:58:03.791Z,9.20
